Time;durP1;ratioP1;P1;durP2;ratioP2;P2;SDS_P1;SDS_P2;PMS_P1;PMS_P2;Temp;Humidity;BMP_temperature;BMP_pressure;BME280_temperature;BME280_humidity;BME280_pressure;Samples;Min_cycle;Max_cycle;Signal;HPM_P1;HPM_P2
2023/01/28 00:00:06;;;;;;;3.10;2.88;;;3.40;99.90;;;;;;5013858;28;20339;-54
2023/01/28 00:02:33;;;;;;;3.50;3.20;;;3.40;99.90;;;;;;5013621;28;20026;-48
2023/01/28 00:04:58;;;;;;;3.40;3.03;;;3.40;99.90;;;;;;5013859;28;20084;-51
2023/01/28 00:07:24;;;;;;;3.35;2.88;;;3.50;99.90;;;;;;5013456;28;20101;-51
2023/01/28 00:09:49;;;;;;;3.15;2.95;;;3.50;99.90;;;;;;5013409;28;20030;-51
2023/01/28 00:12:15;;;;;;;3.28;3.05;;;3.50;99.90;;;;;;4995823;28;20030;-52
2023/01/28 00:14:41;;;;;;;2.63;2.53;;;3.40;99.90;;;;;;5013771;28;20508;-51
2023/01/28 00:17:09;;;;;;;6.35;3.13;;;3.50;99.90;;;;;;5013886;28;20489;-47
2023/01/28 00:19:34;;;;;;;4.47;2.95;;;3.40;99.90;;;;;;4995522;28;20112;-50
2023/01/28 00:22:00;;;;;;;5.60;2.75;;;3.40;99.90;;;;;;5013524;28;20105;-47
2023/01/28 00:24:26;;;;;;;3.17;2.88;;;3.40;99.90;;;;;;5013884;28;20526;-50
2023/01/28 00:26:51;;;;;;;14.75;10.77;;;3.30;99.90;;;;;;4996184;28;20122;-53
2023/01/28 00:29:17;;;;;;;4.32;3.40;;;3.50;99.90;;;;;;5013343;28;20105;-47
2023/01/28 00:31:43;;;;;;;4.35;3.95;;;3.40;99.90;;;;;;5013273;28;20049;-52
2023/01/28 00:34:09;;;;;;;3.85;2.90;;;3.40;99.90;;;;;;5013252;28;20404;-47
2023/01/28 00:36:38;;;;;;;3.00;2.70;;;3.40;99.90;;;;;;5013615;28;20030;-47
2023/01/28 00:39:04;;;;;;;3.70;2.78;;;3.40;99.90;;;;;;5013456;28;20022;-46
2023/01/28 00:41:30;;;;;;;4.18;3.00;;;3.40;99.90;;;;;;5012804;28;20037;-47
2023/01/28 00:43:56;;;;;;;6.57;4.40;;;3.40;99.90;;;;;;5012855;28;20485;-52
2023/01/28 00:46:25;;;;;;;3.28;3.00;;;3.40;99.90;;;;;;5013034;28;20040;-52
2023/01/28 00:48:51;;;;;;;5.72;3.22;;;3.40;99.90;;;;;;5013121;28;20022;-49
2023/01/28 00:51:18;;;;;;;3.13;2.88;;;3.40;99.90;;;;;;5012958;28;20038;-50
2023/01/28 00:53:44;;;;;;;3.63;2.83;;;3.30;99.90;;;;;;5012794;28;20521;-47
2023/01/28 00:56:13;;;;;;;3.08;2.80;;;3.20;99.90;;;;;;5012781;28;20109;-47
2023/01/28 00:58:38;;;;;;;7.90;2.80;;;3.30;99.90;;;;;;5012843;28;20018;-47
2023/01/28 01:01:18;;;;;;;3.13;2.83;;;3.30;99.90;;;;;;5012916;28;20496;-48
2023/01/28 01:03:45;;;;;;;4.28;3.60;;;3.30;99.90;;;;;;5012498;28;20030;-46
2023/01/28 01:06:14;;;;;;;3.15;2.95;;;3.20;99.90;;;;;;5012298;28;20048;-45
2023/01/28 01:08:41;;;;;;;4.40;3.03;;;3.30;99.90;;;;;;5012721;28;20037;-47
2023/01/28 01:11:08;;;;;;;3.50;3.20;;;3.30;99.90;;;;;;5012737;28;20710;-46
2023/01/28 01:13:34;;;;;;;3.60;2.92;;;3.30;99.90;;;;;;5012301;28;20022;-46
2023/01/28 01:16:09;;;;;;;6.40;3.50;;;3.30;99.90;;;;;;5012680;28;20037;-50
2023/01/28 01:18:36;;;;;;;3.20;3.00;;;3.30;99.90;;;;;;4994977;28;20058;-52
2023/01/28 01:21:02;;;;;;;3.42;3.10;;;3.40;99.90;;;;;;5012528;28;20160;-51
2023/01/28 01:23:29;;;;;;;4.55;3.60;;;3.30;99.90;;;;;;5012320;28;20065;-51
2023/01/28 01:25:54;;;;;;;3.80;3.17;;;3.20;99.90;;;;;;5012383;28;20034;-46
2023/01/28 01:28:21;;;;;;;4.53;3.35;;;3.20;99.90;;;;;;5012462;28;20041;-49
2023/01/28 01:30:47;;;;;;;3.40;3.10;;;3.20;99.90;;;;;;5011373;28;20080;-51
2023/01/28 01:33:15;;;;;;;3.05;2.83;;;3.20;99.90;;;;;;5012069;28;20037;-48
2023/01/28 01:35:41;;;;;;;5.25;3.60;;;3.20;99.90;;;;;;5012322;28;20477;-47
2023/01/28 01:38:10;;;;;;;4.68;3.00;;;3.10;99.90;;;;;;4994746;28;20032;-46
2023/01/28 01:40:35;;;;;;;6.38;3.28;;;3.10;99.90;;;;;;5012228;28;20029;-49
2023/01/28 01:43:01;;;;;;;5.60;3.08;;;3.10;99.90;;;;;;4994402;28;20444;-47
2023/01/28 01:45:32;;;;;;;5.93;3.47;;;3.20;99.90;;;;;;5012172;28;20034;-49
2023/01/28 01:48:19;;;;;;;2.83;2.63;;;3.20;99.90;;;;;;5012205;28;20025;-46
2023/01/28 01:50:55;;;;;;;3.90;3.50;;;3.20;99.90;;;;;;5012166;28;20104;-51
2023/01/28 01:53:23;;;;;;;3.72;3.25;;;3.20;99.90;;;;;;5011646;28;20034;-52
2023/01/28 01:55:51;;;;;;;3.90;3.47;;;3.10;99.90;;;;;;5012157;28;20014;-52
2023/01/28 01:58:21;;;;;;;4.25;2.92;;;3.10;99.90;;;;;;5012182;28;20030;-50
2023/01/28 02:00:47;;;;;;;4.03;3.20;;;3.10;99.90;;;;;;5012254;28;20026;-45
2023/01/28 02:03:15;;;;;;;3.15;2.78;;;3.10;99.90;;;;;;5011786;28;20075;-46
2023/01/28 02:05:40;;;;;;;4.60;3.58;;;3.10;99.90;;;;;;5011490;28;20049;-45
2023/01/28 02:08:21;;;;;;;5.28;3.10;;;3.10;99.90;;;;;;5012219;28;20025;-45
2023/01/28 02:10:57;;;;;;;3.35;2.83;;;3.00;99.90;;;;;;5011978;28;20030;-48
2023/01/28 02:13:27;;;;;;;3.95;3.33;;;3.00;99.90;;;;;;5011789;28;20025;-47
2023/01/28 02:15:54;;;;;;;3.28;2.97;;;3.00;99.90;;;;;;5011654;28;20017;-45
2023/01/28 02:18:20;;;;;;;3.20;2.75;;;3.00;99.90;;;;;;5011484;28;20029;-46
2023/01/28 02:20:58;;;;;;;4.20;3.30;;;2.90;99.90;;;;;;5011865;28;20026;-49
2023/01/28 02:23:45;;;;;;;3.03;2.80;;;2.90;99.90;;;;;;5011633;28;20034;-46
2023/01/28 02:26:38;;;;;;;3.70;3.40;;;2.80;99.90;;;;;;4994097;28;20093;-46
2023/01/28 02:29:35;;;;;;;4.15;3.00;;;2.90;99.90;;;;;;5011834;28;20069;-50
2023/01/28 02:32:09;;;;;;;3.72;3.33;;;2.90;99.90;;;;;;5011559;28;20042;-47
2023/01/28 02:34:44;;;;;;;4.68;3.10;;;2.80;99.90;;;;;;4994209;28;20056;-47
2023/01/28 02:37:26;;;;;;;3.80;3.47;;;2.70;99.90;;;;;;5011909;28;20014;-51
2023/01/28 02:39:56;;;;;;;5.13;3.03;;;2.70;99.90;;;;;;5011660;28;20030;-46
2023/01/28 02:42:32;;;;;;;6.50;3.78;;;2.70;99.90;;;;;;5012897;28;20033;-47
2023/01/28 02:44:58;;;;;;;;;;;2.70;99.90;;;;;;5015618;28;20101;-47
2023/01/28 02:50:55;;;;;;;5.38;3.28;;;2.70;99.90;;;;;;5013871;28;20116;-48
2023/01/28 02:53:42;;;;;;;7.85;3.00;;;2.70;99.90;;;;;;5014810;28;20478;-47
2023/01/28 02:56:28;;;;;;;6.45;3.25;;;2.60;99.90;;;;;;5015342;28;20030;-45
2023/01/28 02:59:34;;;;;;;3.28;2.97;;;2.70;99.90;;;;;;5015149;28;20472;-46
2023/01/28 03:02:19;;;;;;;4.07;3.67;;;2.60;99.90;;;;;;5014746;28;20037;-46
2023/01/28 03:05:11;;;;;;;3.33;3.08;;;2.60;99.90;;;;;;5014829;28;20038;-45
2023/01/28 03:07:38;;;;;;;3.38;2.55;;;2.70;99.90;;;;;;5014428;28;20030;-47
2023/01/28 03:10:07;;;;;;;5.65;3.33;;;2.70;99.90;;;;;;5014776;28;20117;-52
2023/01/28 03:38:21;;;;;;;4.40;4.00;;;2.70;99.90;;;;;;5014255;28;20405;-46
2023/01/28 03:41:05;;;;;;;2.75;2.55;;;2.70;99.90;;;;;;5014133;28;20030;-46
2023/01/28 03:43:31;;;;;;;3.85;3.47;;;2.70;99.90;;;;;;4996323;28;20126;-48
2023/01/28 03:45:57;;;;;;;5.70;2.92;;;2.70;99.90;;;;;;5013917;28;20109;-46
2023/01/28 03:48:24;;;;;;;5.20;3.00;;;2.70;99.90;;;;;;5014115;28;20436;-45
2023/01/28 03:50:51;;;;;;;4.70;2.67;;;2.70;99.90;;;;;;5014305;28;20026;-47
2023/01/28 03:53:17;;;;;;;3.45;3.00;;;2.60;99.90;;;;;;5013044;28;20029;-49
2023/01/28 03:55:45;;;;;;;4.18;2.83;;;2.70;99.90;;;;;;5013436;28;20075;-46
2023/01/28 03:58:11;;;;;;;5.65;2.70;;;2.60;99.90;;;;;;5013797;28;20022;-46
2023/01/28 04:00:40;;;;;;;5.32;3.35;;;2.60;99.90;;;;;;5013782;28;20018;-51
2023/01/28 04:03:14;;;;;;;4.32;3.53;;;2.60;99.90;;;;;;5013540;28;20030;-46
2023/01/28 04:05:46;;;;;;;4.20;3.33;;;2.60;99.90;;;;;;5013031;28;20034;-46
2023/01/28 04:08:12;;;;;;;3.22;2.88;;;2.60;99.90;;;;;;4996206;28;20029;-46
2023/01/28 04:10:39;;;;;;;4.38;3.88;;;2.60;99.90;;;;;;5013432;28;20109;-48
2023/01/28 04:13:05;;;;;;;4.80;3.97;;;2.60;99.90;;;;;;5013369;28;20449;-49
2023/01/28 04:15:31;;;;;;;3.95;2.70;;;2.60;99.90;;;;;;5013524;28;20030;-48
2023/01/28 04:17:57;;;;;;;4.00;3.40;;;2.70;99.90;;;;;;5013347;28;20030;-47
2023/01/28 04:20:22;;;;;;;3.95;3.60;;;2.60;99.90;;;;;;4995782;28;20030;-46
2023/01/28 04:22:48;;;;;;;3.80;3.50;;;2.60;99.90;;;;;;4995515;28;20018;-51
2023/01/28 04:25:13;;;;;;;3.92;3.53;;;2.70;99.90;;;;;;5013574;28;20084;-46
2023/01/28 04:27:39;;;;;;;3.45;3.15;;;2.70;99.90;;;;;;5012905;28;20054;-46
2023/01/28 04:30:05;;;;;;;5.05;3.25;;;2.70;99.90;;;;;;5013395;28;20504;-48
2023/01/28 04:32:30;;;;;;;3.67;3.00;;;2.70;99.90;;;;;;5012980;28;20077;-49
2023/01/28 04:34:56;;;;;;;4.50;3.13;;;2.70;99.90;;;;;;5013246;28;20077;-52
2023/01/28 04:37:21;;;;;;;5.25;3.78;;;2.70;99.90;;;;;;4995485;28;20494;-47
2023/01/28 04:39:47;;;;;;;3.50;3.10;;;2.70;99.90;;;;;;4995558;28;20018;-47
2023/01/28 04:42:13;;;;;;;5.03;3.47;;;2.60;99.90;;;;;;5012957;28;20087;-47
2023/01/28 04:44:38;;;;;;;4.57;3.88;;;2.60;99.90;;;;;;5013089;28;20032;-50
2023/01/28 04:47:04;;;;;;;6.53;3.08;;;2.60;99.90;;;;;;4995417;28;20022;-50
2023/01/28 04:49:29;;;;;;;4.28;3.17;;;2.60;99.90;;;;;;5012924;28;20489;-51
2023/01/28 04:51:55;;;;;;;3.67;3.10;;;2.60;99.90;;;;;;5012826;28;20033;-51
2023/01/28 04:54:20;;;;;;;6.43;3.13;;;2.60;99.90;;;;;;5013439;28;20049;-45
2023/01/28 04:56:46;;;;;;;5.25;3.90;;;2.60;99.90;;;;;;5013363;28;20037;-47
2023/01/28 04:59:11;;;;;;;3.47;3.17;;;2.60;99.90;;;;;;5013273;28;20535;-49
2023/01/28 05:01:37;;;;;;;4.70;3.45;;;2.60;99.90;;;;;;5013172;28;20034;-54
2023/01/28 05:04:04;;;;;;;5.68;3.30;;;2.70;99.90;;;;;;5012459;28;20171;-47
2023/01/28 05:06:30;;;;;;;5.03;3.60;;;2.60;99.90;;;;;;5012907;28;20029;-52
2023/01/28 05:08:56;;;;;;;7.20;3.90;;;2.60;99.90;;;;;;5013105;28;20061;-49
2023/01/28 05:11:22;;;;;;;3.05;2.70;;;2.60;99.90;;;;;;5013152;28;20026;-49
2023/01/28 05:13:48;;;;;;;5.75;3.67;;;2.60;99.90;;;;;;5013368;28;20026;-48
2023/01/28 05:16:13;;;;;;;3.78;2.95;;;2.70;99.90;;;;;;5012854;28;20030;-46
2023/01/28 05:18:39;;;;;;;5.53;3.00;;;2.60;99.90;;;;;;5012656;28;20022;-47
2023/01/28 05:21:04;;;;;;;3.75;3.03;;;2.70;99.90;;;;;;5012199;28;20030;-46
2023/01/28 05:23:30;;;;;;;4.70;3.78;;;2.70;99.90;;;;;;5011951;28;20022;-47
2023/01/28 05:25:55;;;;;;;3.90;3.15;;;2.70;99.90;;;;;;5012070;28;20029;-50
2023/01/28 05:28:21;;;;;;;6.20;4.00;;;2.70;99.90;;;;;;5012531;28;20137;-48
2023/01/28 05:30:46;;;;;;;4.40;3.10;;;2.80;99.90;;;;;;5012127;28;20038;-53
2023/01/28 05:33:12;;;;;;;4.78;2.85;;;2.80;99.90;;;;;;5011511;28;20026;-48
2023/01/28 05:35:37;;;;;;;4.72;3.17;;;2.70;99.90;;;;;;5011880;28;20025;-49
2023/01/28 05:38:03;;;;;;;5.20;2.95;;;2.90;99.90;;;;;;5011938;28;20499;-47
2023/01/28 05:40:29;;;;;;;5.50;3.38;;;2.80;99.90;;;;;;5011952;28;20026;-53
2023/01/28 05:42:54;;;;;;;5.40;3.30;;;2.90;99.90;;;;;;5011632;28;20026;-49
2023/01/28 05:45:20;;;;;;;3.55;3.17;;;2.80;99.90;;;;;;5011781;28;20104;-48
2023/01/28 05:47:45;;;;;;;3.53;3.22;;;2.80;99.90;;;;;;4994246;28;20571;-50
2023/01/28 05:50:13;;;;;;;4.03;3.15;;;2.80;99.90;;;;;;5011781;28;20029;-47
2023/01/28 05:52:38;;;;;;;3.67;3.33;;;2.80;99.90;;;;;;5011419;28;20396;-51
2023/01/28 05:55:05;;;;;;;5.40;3.67;;;2.80;99.90;;;;;;5011699;28;20040;-51
2023/01/28 05:57:30;;;;;;;6.38;3.42;;;2.80;99.90;;;;;;5011948;28;20093;-49
2023/01/28 05:59:56;;;;;;;3.00;2.75;;;2.80;99.90;;;;;;5011718;28;20108;-49
2023/01/28 06:02:21;;;;;;;3.92;2.83;;;2.90;99.90;;;;;;4993759;28;20022;-47
2023/01/28 06:04:47;;;;;;;3.38;2.92;;;2.90;99.90;;;;;;5011487;28;20162;-48
2023/01/28 06:07:14;;;;;;;3.03;2.72;;;2.80;99.90;;;;;;5011889;28;20054;-47
2023/01/28 06:09:39;;;;;;;3.75;2.70;;;2.80;99.90;;;;;;5011640;28;20428;-49
2023/01/28 06:12:05;;;;;;;4.28;3.22;;;2.80;99.90;;;;;;5011342;28;20109;-47
2023/01/28 06:14:31;;;;;;;4.15;2.80;;;2.90;99.90;;;;;;5011593;28;20058;-46
2023/01/28 06:16:56;;;;;;;3.58;2.90;;;2.90;99.90;;;;;;5012509;28;20093;-53
2023/01/28 06:19:22;;;;;;;6.18;2.78;;;2.90;99.90;;;;;;5015637;28;20022;-48
2023/01/28 06:21:47;;;;;;;4.00;2.78;;;2.90;99.90;;;;;;5015478;28;20037;-49
2023/01/28 06:24:13;;;;;;;5.00;3.20;;;2.90;99.90;;;;;;5015210;28;20401;-49
2023/01/28 06:26:38;;;;;;;4.05;2.83;;;2.90;99.90;;;;;;5015433;28;20065;-47
2023/01/28 06:29:04;;;;;;;7.97;3.58;;;2.80;99.90;;;;;;5015497;28;20033;-47
2023/01/28 06:31:29;;;;;;;4.80;2.85;;;2.90;99.90;;;;;;5015627;28;20414;-48
2023/01/28 06:33:55;;;;;;;3.20;2.65;;;2.90;99.90;;;;;;5015173;28;20503;-52
2023/01/28 06:36:20;;;;;;;4.20;3.17;;;2.90;99.90;;;;;;5015309;28;20026;-44
2023/01/28 06:38:46;;;;;;;4.30;3.05;;;2.90;99.90;;;;;;5014935;28;20021;-48
2023/01/28 06:41:11;;;;;;;6.35;3.47;;;2.90;99.90;;;;;;5015221;28;20160;-48
2023/01/28 06:43:37;;;;;;;3.60;2.88;;;2.90;99.90;;;;;;5014990;28;20448;-49
2023/01/28 06:46:02;;;;;;;3.15;2.53;;;2.90;99.90;;;;;;5014992;28;20097;-51
2023/01/28 06:48:28;;;;;;;4.57;3.50;;;2.90;99.90;;;;;;5015049;28;20431;-50
2023/01/28 06:50:53;;;;;;;3.83;2.70;;;2.80;99.90;;;;;;5014908;28;20025;-53
2023/01/28 06:53:19;;;;;;;4.00;3.08;;;2.80;99.90;;;;;;5014687;28;20121;-48
2023/01/28 06:55:45;;;;;;;4.70;3.63;;;2.80;99.90;;;;;;5014830;28;20032;-47
2023/01/28 06:58:10;;;;;;;3.83;2.95;;;2.80;99.90;;;;;;5015379;28;20018;-50
2023/01/28 07:00:36;;;;;;;3.67;3.20;;;2.90;99.90;;;;;;5014851;28;20029;-47
2023/01/28 07:03:02;;;;;;;5.28;2.90;;;2.80;99.90;;;;;;5014568;28;20026;-48
2023/01/28 07:05:28;;;;;;;4.50;3.10;;;2.80;99.90;;;;;;5014296;28;20669;-47
2023/01/28 07:07:53;;;;;;;3.75;3.45;;;2.80;99.90;;;;;;5014680;28;20109;-50
2023/01/28 07:10:19;;;;;;;3.63;2.47;;;2.80;99.90;;;;;;5014706;28;20033;-46
2023/01/28 07:12:44;;;;;;;3.25;2.58;;;2.90;99.90;;;;;;5014045;28;20560;-51
2023/01/28 07:15:10;;;;;;;3.83;2.80;;;3.00;99.90;;;;;;5014503;28;20402;-47
2023/01/28 07:17:40;;;;;;;3.28;2.95;;;2.90;99.90;;;;;;5014591;28;20041;-47
2023/01/28 07:20:07;;;;;;;5.80;2.95;;;2.90;99.90;;;;;;5007828;28;20030;-46
2023/01/28 07:22:32;;;;;;;3.50;3.20;;;2.90;99.90;;;;;;5012603;28;20112;-54
2023/01/28 07:24:59;;;;;;;5.70;3.25;;;2.90;99.90;;;;;;5011557;28;20124;-54
2023/01/28 07:27:25;;;;;;;3.08;2.75;;;2.90;99.90;;;;;;5013931;28;20026;-53
2023/01/28 07:29:51;;;;;;;4.38;2.83;;;2.90;99.90;;;;;;5013494;28;20053;-55
2023/01/28 07:32:16;;;;;;;4.45;3.70;;;2.80;99.90;;;;;;5013045;28;20121;-50
2023/01/28 07:34:42;;;;;;;3.10;2.80;;;2.90;99.90;;;;;;5014287;28;20030;-50
2023/01/28 07:37:08;;;;;;;5.43;3.25;;;2.80;99.90;;;;;;4995613;28;20435;-52
2023/01/28 07:39:34;;;;;;;3.70;3.10;;;2.80;99.90;;;;;;5013497;28;20029;-52
2023/01/28 07:42:00;;;;;;;6.93;3.03;;;2.80;99.90;;;;;;5012859;28;20034;-49
2023/01/28 07:44:26;;;;;;;4.80;2.85;;;2.80;99.90;;;;;;5014089;28;20513;-54
2023/01/28 07:46:51;;;;;;;6.60;3.10;;;2.80;99.90;;;;;;5013884;28;20088;-49
2023/01/28 07:49:17;;;;;;;5.93;2.90;;;2.80;99.90;;;;;;5013923;28;20022;-53
2023/01/28 07:51:45;;;;;;;4.75;2.85;;;2.80;99.90;;;;;;5013854;28;20068;-49
2023/01/28 07:54:11;;;;;;;4.47;2.88;;;2.90;99.90;;;;;;5013946;28;20018;-50
2023/01/28 07:56:37;;;;;;;4.82;3.53;;;2.90;99.90;;;;;;5013775;28;20507;-52
2023/01/28 07:59:03;;;;;;;5.15;2.60;;;2.90;99.90;;;;;;5013719;28;20029;-52
2023/01/28 08:01:28;;;;;;;6.30;2.90;;;2.90;99.90;;;;;;5013707;28;20030;-53
2023/01/28 08:03:54;;;;;;;3.22;2.80;;;3.00;99.90;;;;;;5013314;28;20034;-58
2023/01/28 08:06:19;;;;;;;6.65;2.83;;;3.00;99.90;;;;;;5013558;28;20040;-51
2023/01/28 08:08:46;;;;;;;3.22;2.65;;;3.00;99.90;;;;;;5013857;28;20033;-50
2023/01/28 08:11:12;;;;;;;9.25;3.60;;;2.90;99.90;;;;;;5013540;28;20062;-54
2023/01/28 08:13:37;;;;;;;6.45;3.30;;;3.00;99.90;;;;;;5013781;28;20054;-49
2023/01/28 08:16:03;;;;;;;5.53;4.10;;;3.00;99.90;;;;;;5013618;28;20026;-50
2023/01/28 08:18:29;;;;;;;8.77;3.63;;;2.90;99.90;;;;;;5013191;28;20022;-57
2023/01/28 08:20:58;;;;;;;2.85;2.65;;;3.00;99.90;;;;;;5013371;28;20515;-49
2023/01/28 08:23:25;;;;;;;6.57;2.78;;;3.00;99.90;;;;;;5013173;28;20034;-51
2023/01/28 08:25:52;;;;;;;5.32;3.03;;;2.90;99.90;;;;;;5013195;28;20168;-56
2023/01/28 08:28:18;;;;;;;8.50;3.15;;;2.90;99.90;;;;;;5013301;28;20033;-54
2023/01/28 08:30:44;;;;;;;3.25;2.95;;;2.90;99.90;;;;;;5013030;28;20114;-54
2023/01/28 08:33:12;;;;;;;4.03;2.70;;;2.90;99.90;;;;;;5012881;28;20073;-50
2023/01/28 08:35:38;;;;;;;4.80;3.35;;;3.00;99.90;;;;;;5013173;28;20369;-56
2023/01/28 08:38:05;;;;;;;3.55;2.90;;;3.00;99.90;;;;;;5013129;28;20025;-53
2023/01/28 08:40:31;;;;;;;2.67;2.40;;;3.10;99.90;;;;;;5012653;28;20477;-52
2023/01/28 08:42:57;;;;;;;4.35;2.60;;;3.10;99.90;;;;;;4994807;28;20030;-50
2023/01/28 08:45:25;;;;;;;8.40;3.08;;;3.00;99.90;;;;;;5012785;28;20109;-52
2023/01/28 08:47:52;;;;;;;4.30;3.15;;;3.10;99.90;;;;;;4995239;28;20450;-50
2023/01/28 08:50:19;;;;;;;3.83;2.75;;;3.10;99.90;;;;;;4995297;28;20417;-55
2023/01/28 08:52:46;;;;;;;4.72;2.90;;;3.20;99.90;;;;;;5012360;28;20030;-45
2023/01/28 08:55:12;;;;;;;5.30;3.03;;;3.20;99.90;;;;;;5012712;28;20421;-51
2023/01/28 08:57:37;;;;;;;4.78;3.60;;;3.20;99.90;;;;;;5012905;28;20028;-49
2023/01/28 09:00:04;;;;;;;3.20;2.90;;;3.20;99.90;;;;;;5012603;28;20018;-49
2023/01/28 09:02:30;;;;;;;3.85;3.10;;;3.10;99.90;;;;;;5012511;28;20036;-48
2023/01/28 09:04:55;;;;;;;4.97;2.95;;;3.10;99.90;;;;;;5012545;28;20416;-50
2023/01/28 09:07:21;;;;;;;3.05;2.80;;;3.10;99.90;;;;;;5012528;28;20145;-50
2023/01/28 09:09:46;;;;;;;4.03;3.53;;;3.00;99.90;;;;;;5012672;28;20477;-49
2023/01/28 09:12:12;;;;;;;3.17;2.90;;;3.00;99.90;;;;;;5012214;28;20034;-50
2023/01/28 09:14:37;;;;;;;5.70;3.15;;;3.00;99.90;;;;;;5012433;28;20473;-54
2023/01/28 09:17:06;;;;;;;3.10;2.85;;;3.00;99.90;;;;;;5012317;28;20030;-55
2023/01/28 09:19:31;;;;;;;4.10;2.83;;;3.00;99.90;;;;;;5012746;28;20105;-54
2023/01/28 09:21:57;;;;;;;5.45;3.03;;;3.00;99.90;;;;;;4994557;28;20061;-51
2023/01/28 09:24:22;;;;;;;5.75;2.92;;;3.10;99.90;;;;;;5011881;28;20034;-49
2023/01/28 09:26:48;;;;;;;4.32;2.83;;;3.00;99.90;;;;;;5012242;28;20026;-49
2023/01/28 09:29:14;;;;;;;3.10;2.80;;;3.00;99.90;;;;;;5011976;28;20040;-51
2023/01/28 09:31:40;;;;;;;9.88;3.25;;;3.00;99.90;;;;;;5012373;28;20108;-56
2023/01/28 09:34:06;;;;;;;4.28;3.03;;;3.10;99.90;;;;;;5011764;28;20036;-55
2023/01/28 09:36:32;;;;;;;4.63;3.20;;;3.10;99.90;;;;;;5011995;28;20105;-53
2023/01/28 09:38:57;;;;;;;5.63;3.42;;;3.20;99.90;;;;;;5012214;28;20030;-50
2023/01/28 09:41:30;;;;;;;5.22;3.40;;;3.10;99.90;;;;;;5012031;28;20454;-51
2023/01/28 09:44:08;;;;;;;4.90;2.80;;;3.10;99.90;;;;;;5009771;28;20068;-50
2023/01/28 09:46:36;;;;;;;5.57;3.63;;;3.10;99.90;;;;;;5011809;28;20037;-55
2023/01/28 09:49:16;;;;;;;4.88;3.20;;;3.10;99.90;;;;;;5011857;28;20017;-51
2023/01/28 09:51:47;;;;;;;3.78;3.10;;;3.00;99.90;;;;;;5010721;28;20048;-54
2023/01/28 09:54:48;;;;;;;2.97;2.67;;;3.10;99.90;;;;;;5011659;28;20018;-50
2023/01/28 09:57:23;;;;;;;6.20;3.28;;;3.20;99.90;;;;;;5002104;28;20037;-51
2023/01/28 09:59:49;;;;;;;3.75;3.10;;;3.30;99.90;;;;;;4994202;28;20056;-55
2023/01/28 10:02:40;;;;;;;7.85;3.63;;;3.10;99.90;;;;;;5011840;28;20062;-51
2023/01/28 10:05:24;;;;;;;4.18;2.67;;;3.20;99.90;;;;;;5011607;28;20034;-48
2023/01/28 10:07:57;;;;;;;3.67;2.63;;;3.10;99.90;;;;;;5011947;28;20030;-47
2023/01/28 10:10:34;;;;;;;4.82;3.05;;;3.10;99.90;;;;;;5011993;28;20100;-49
2023/01/28 10:13:11;;;;;;;4.93;2.35;;;3.10;99.90;;;;;;5010922;28;20351;-53
2023/01/28 10:15:58;;;;;;;3.40;3.10;;;3.10;99.90;;;;;;5009886;28;20088;-55
2023/01/28 10:18:55;;;;;;;4.47;3.38;;;3.10;99.90;;;;;;4990242;28;20033;-55
2023/01/28 10:21:27;;;;;;;11.20;2.63;;;3.20;99.90;;;;;;5007646;28;20021;-53
2023/01/28 10:24:09;;;;;;;4.97;3.05;;;3.20;99.90;;;;;;5012034;28;20036;-50
2023/01/28 10:26:41;;;;;;;3.08;2.83;;;3.20;99.90;;;;;;5011747;28;20022;-51
2023/01/28 10:29:23;;;;;;;2.88;2.65;;;3.30;99.90;;;;;;5011451;28;20037;-56
2023/01/28 10:31:54;;;;;;;5.13;3.40;;;3.30;99.90;;;;;;5011310;28;20034;-51
2023/01/28 10:34:21;;;;;;;4.07;2.85;;;3.40;99.90;;;;;;5010493;28;20393;-52
2023/01/28 10:36:47;;;;;;;4.50;3.08;;;3.40;99.90;;;;;;5011312;28;20034;-52
2023/01/28 10:39:19;;;;;;;9.98;4.70;;;3.30;99.90;;;;;;4993273;28;20229;-55
2023/01/28 10:41:45;;;;;;;4.28;3.83;;;3.30;99.90;;;;;;5010882;28;20038;-55
2023/01/28 10:44:25;;;;;;;8.25;3.38;;;3.30;99.90;;;;;;5011080;28;20401;-56
2023/01/28 10:46:52;;;;;;;4.88;3.08;;;3.40;99.90;;;;;;5011201;28;20062;-55
2023/01/28 10:49:28;;;;;;;5.00;3.33;;;3.30;99.90;;;;;;5011479;28;20030;-54
2023/01/28 10:51:54;;;;;;;6.95;3.60;;;3.30;99.90;;;;;;4993346;28;20042;-57
2023/01/28 10:54:24;;;;;;;6.55;4.13;;;3.30;99.90;;;;;;4974231;28;20026;-54
2023/01/28 10:56:54;;;;;;;3.83;3.20;;;3.30;99.90;;;;;;4991066;28;20050;-55
2023/01/28 10:59:26;;;;;;;8.93;3.83;;;3.20;99.90;;;;;;5008796;28;20080;-50
2023/01/28 11:01:56;;;;;;;8.07;3.25;;;3.20;99.90;;;;;;4973911;28;20053;-51
2023/01/28 11:04:29;;;;;;;6.20;3.28;;;3.20;99.90;;;;;;5013037;28;20052;-56
2023/01/28 11:07:16;;;;;;;3.60;3.30;;;3.20;99.90;;;;;;5012567;28;20101;-53
2023/01/28 11:09:46;;;;;;;3.75;3.33;;;3.20;99.90;;;;;;5009625;28;20022;-56
2023/01/28 11:12:19;;;;;;;5.03;3.40;;;3.30;99.90;;;;;;5013220;28;20089;-58
2023/01/28 11:14:54;;;;;;;5.03;3.58;;;3.30;99.90;;;;;;5014395;28;20026;-51
2023/01/28 11:17:23;;;;;;;6.97;3.95;;;3.30;99.90;;;;;;5014602;28;20026;-53
2023/01/28 11:19:51;;;;;;;3.58;3.28;;;3.30;99.90;;;;;;5014256;28;20109;-55
2023/01/28 11:22:32;;;;;;;6.15;3.70;;;3.20;99.90;;;;;;4996600;28;20123;-49
2023/01/28 11:25:01;;;;;;;4.45;3.42;;;3.20;99.90;;;;;;5007620;28;20551;-54
2023/01/28 11:27:30;;;;;;;4.88;3.95;;;3.30;99.90;;;;;;5011016;28;20205;-55
2023/01/28 11:30:03;;;;;;;3.67;3.35;;;3.40;99.90;;;;;;4993627;28;20033;-57
2023/01/28 11:32:30;;;;;;;5.43;3.63;;;3.40;99.90;;;;;;5001907;28;20029;-53
2023/01/28 11:34:56;;;;;;;5.13;4.38;;;3.40;99.90;;;;;;5014336;28;20048;-51
2023/01/28 11:37:24;;;;;;;7.60;3.83;;;3.50;99.90;;;;;;5013971;28;20025;-53
2023/01/28 11:40:15;;;;;;;3.97;3.20;;;3.50;99.90;;;;;;5014013;28;20041;-58
2023/01/28 11:42:41;;;;;;;6.55;3.40;;;3.50;99.90;;;;;;5013441;28;20026;-57
2023/01/28 11:45:16;;;;;;;4.50;3.63;;;3.50;99.90;;;;;;5013380;28;20109;-53
2023/01/28 11:47:57;;;;;;;8.07;4.80;;;3.60;99.90;;;;;;5013920;28;20034;-57
2023/01/28 11:50:59;;;;;;;7.30;3.22;;;3.70;99.90;;;;;;4996551;28;20436;-50
2023/01/28 11:53:43;;;;;;;6.00;3.30;;;3.60;99.90;;;;;;5013520;28;20057;-49
2023/01/28 11:56:22;;;;;;;5.30;3.67;;;3.60;99.90;;;;;;5013199;28;20469;-47
2023/01/28 11:59:15;;;;;;;4.20;3.17;;;3.40;99.90;;;;;;5013048;28;20018;-49
2023/01/28 12:02:20;;;;;;;4.47;3.33;;;3.40;99.90;;;;;;5012998;28;20148;-51
2023/01/28 12:04:57;;;;;;;3.72;3.40;;;3.50;99.90;;;;;;5009041;28;20406;-52
2023/01/28 12:07:55;;;;;;;3.03;2.75;;;3.30;99.90;;;;;;5013445;28;20112;-50
2023/01/28 12:10:24;;;;;;;3.95;2.80;;;3.30;99.90;;;;;;4968953;28;20046;-54
2023/01/28 12:13:12;;;;;;;4.22;3.55;;;3.30;99.90;;;;;;5012464;28;20322;-51
2023/01/28 12:16:00;;;;;;;5.60;3.15;;;3.30;99.90;;;;;;5012223;28;20030;-51
2023/01/28 12:18:31;;;;;;;2.60;2.40;;;3.40;99.90;;;;;;4995405;28;20030;-52
2023/01/28 12:21:09;;;;;;;4.20;3.03;;;3.30;99.90;;;;;;5012769;28;20451;-56
2023/01/28 12:23:57;;;;;;;2.72;2.53;;;3.20;99.90;;;;;;5012551;28;20400;-53
2023/01/28 12:26:40;;;;;;;3.30;3.00;;;3.20;99.90;;;;;;5012847;28;20036;-55
2023/01/28 12:29:21;;;;;;;3.30;3.00;;;3.30;99.90;;;;;;5013077;28;20112;-52
2023/01/28 12:32:11;;;;;;;3.58;3.00;;;3.40;99.90;;;;;;5013141;28;20018;-54
2023/01/28 12:34:50;;;;;;;4.28;2.33;;;3.30;99.90;;;;;;5012722;28;20072;-58
2023/01/28 12:37:22;;;;;;;7.45;2.55;;;3.40;99.90;;;;;;5012248;28;20040;-53
2023/01/28 12:40:08;;;;;;;5.97;2.80;;;3.40;99.90;;;;;;5012348;28;20757;-56
2023/01/28 12:42:43;;;;;;;5.47;2.55;;;3.50;99.90;;;;;;5001092;28;20026;-61
2023/01/28 12:45:20;;;;;;;3.17;2.72;;;3.30;99.90;;;;;;5012395;28;20519;-56
2023/01/28 12:47:57;;;;;;;3.35;2.50;;;3.40;99.90;;;;;;5012762;28;20026;-53
2023/01/28 12:50:53;;;;;;;6.57;3.78;;;3.20;99.90;;;;;;4994962;28;20028;-57
2023/01/28 12:53:26;;;;;;;2.33;2.22;;;3.10;99.90;;;;;;4994835;28;20061;-53
2023/01/28 12:56:05;;;;;;;2.72;2.40;;;3.10;99.90;;;;;;5011770;28;20038;-55
2023/01/28 12:58:57;;;;;;;3.38;2.60;;;3.10;99.90;;;;;;4995065;28;20026;-52
2023/01/28 13:01:29;;;;;;;3.25;2.90;;;3.10;99.90;;;;;;5012189;28;20022;-55
2023/01/28 13:04:07;;;;;;;2.67;2.47;;;3.10;99.90;;;;;;4994452;28;20030;-55
2023/01/28 13:06:49;;;;;;;4.28;3.08;;;3.10;99.90;;;;;;5012585;28;20464;-56
2023/01/28 13:09:18;;;;;;;3.92;2.92;;;3.10;99.90;;;;;;5012414;28;20544;-55
2023/01/28 13:11:46;;;;;;;6.90;2.88;;;3.10;99.90;;;;;;5011723;28;20072;-54
2023/01/28 13:14:13;;;;;;;4.47;2.78;;;3.10;99.90;;;;;;5011899;28;20409;-58
2023/01/28 13:16:38;;;;;;;3.53;3.08;;;2.90;99.90;;;;;;5012212;28;20017;-55
2023/01/28 13:19:07;;;;;;;38.55;19.92;;;2.80;99.90;;;;;;4994812;28;20049;-57
2023/01/28 13:21:34;;;;;;;404.75;211.60;;;2.80;99.90;;;;;;5011303;28;20036;-56
2023/01/28 13:24:10;;;;;;;6.95;3.70;;;2.80;99.90;;;;;;5011960;28;20464;-52
2023/01/28 13:26:55;;;;;;;3.50;3.20;;;2.60;99.90;;;;;;5011685;28;20076;-52
2023/01/28 13:29:32;;;;;;;4.75;3.28;;;2.70;99.90;;;;;;4994132;28;20029;-56
2023/01/28 13:32:01;;;;;;;3.13;2.80;;;2.70;99.90;;;;;;5010956;28;20022;-52
2023/01/28 13:34:39;;;;;;;4.85;3.25;;;2.80;99.90;;;;;;5011516;28;20116;-54
2023/01/28 13:37:23;;;;;;;4.15;3.17;;;2.80;99.90;;;;;;5011856;28;20026;-50
2023/01/28 13:39:58;;;;;;;5.82;2.67;;;2.70;99.90;;;;;;5011970;28;20508;-56
2023/01/28 13:42:29;;;;;;;3.13;2.67;;;2.70;99.90;;;;;;5011706;28;20378;-51